sensor_id;sensor_type;location;lat;lon;timestamp;P1;durP1;ratioP1;P2;durP2;ratioP2
10894;SDS011;5500;49.886;8.074;2022-10-22T00:01:17;6.50;;;3.40;;
10894;SDS011;5500;49.886;8.074;2022-10-22T00:03:46;4.93;;;3.87;;
10894;SDS011;5500;49.886;8.074;2022-10-22T00:06:13;4.63;;;4.00;;
10894;SDS011;5500;49.886;8.074;2022-10-22T00:08:41;5.87;;;3.87;;
10894;SDS011;5500;49.886;8.074;2022-10-22T00:11:09;4.10;;;3.57;;
10894;SDS011;5500;49.886;8.074;2022-10-22T00:13:40;9.33;;;4.63;;
10894;SDS011;5500;49.886;8.074;2022-10-22T00:16:10;8.00;;;4.60;;
10894;SDS011;5500;49.886;8.074;2022-10-22T00:18:38;7.87;;;4.07;;
10894;SDS011;5500;49.886;8.074;2022-10-22T00:21:06;12.47;;;3.93;;
10894;SDS011;5500;49.886;8.074;2022-10-22T00:23:34;8.60;;;4.43;;
10894;SDS011;5500;49.886;8.074;2022-10-22T00:26:02;5.67;;;4.20;;
10894;SDS011;5500;49.886;8.074;2022-10-22T00:28:31;6.83;;;4.50;;
10894;SDS011;5500;49.886;8.074;2022-10-22T00:30:59;7.20;;;4.03;;
10894;SDS011;5500;49.886;8.074;2022-10-22T00:33:29;8.53;;;3.87;;
10894;SDS011;5500;49.886;8.074;2022-10-22T00:35:58;8.67;;;4.43;;
10894;SDS011;5500;49.886;8.074;2022-10-22T00:38:28;9.03;;;5.13;;
10894;SDS011;5500;49.886;8.074;2022-10-22T00:40:59;6.80;;;4.23;;
10894;SDS011;5500;49.886;8.074;2022-10-22T00:43:32;10.07;;;4.40;;
10894;SDS011;5500;49.886;8.074;2022-10-22T00:46:19;6.30;;;3.93;;
10894;SDS011;5500;49.886;8.074;2022-10-22T00:48:50;9.50;;;3.87;;
10894;SDS011;5500;49.886;8.074;2022-10-22T00:51:20;5.13;;;4.10;;
10894;SDS011;5500;49.886;8.074;2022-10-22T00:53:51;4.87;;;3.83;;
10894;SDS011;5500;49.886;8.074;2022-10-22T00:56:24;4.70;;;3.77;;
10894;SDS011;5500;49.886;8.074;2022-10-22T00:58:54;4.63;;;3.20;;
10894;SDS011;5500;49.886;8.074;2022-10-22T01:01:26;6.73;;;3.50;;
10894;SDS011;5500;49.886;8.074;2022-10-22T01:03:58;9.30;;;3.90;;
10894;SDS011;5500;49.886;8.074;2022-10-22T01:06:31;6.10;;;3.90;;
10894;SDS011;5500;49.886;8.074;2022-10-22T01:09:07;4.43;;;3.43;;
10894;SDS011;5500;49.886;8.074;2022-10-22T01:11:42;7.67;;;4.43;;
10894;SDS011;5500;49.886;8.074;2022-10-22T01:14:18;10.37;;;4.13;;
10894;SDS011;5500;49.886;8.074;2022-10-22T01:16:51;9.47;;;4.73;;
10894;SDS011;5500;49.886;8.074;2022-10-22T01:19:28;6.27;;;3.70;;
10894;SDS011;5500;49.886;8.074;2022-10-22T01:22:04;5.47;;;4.30;;
10894;SDS011;5500;49.886;8.074;2022-10-22T01:24:41;7.97;;;4.70;;
10894;SDS011;5500;49.886;8.074;2022-10-22T01:27:25;5.37;;;3.90;;
10894;SDS011;5500;49.886;8.074;2022-10-22T01:30:10;7.77;;;3.60;;
10894;SDS011;5500;49.886;8.074;2022-10-22T01:32:40;11.83;;;3.57;;
10894;SDS011;5500;49.886;8.074;2022-10-22T01:35:13;12.70;;;3.70;;
10894;SDS011;5500;49.886;8.074;2022-10-22T01:37:45;7.00;;;2.87;;
10894;SDS011;5500;49.886;8.074;2022-10-22T01:40:15;11.17;;;3.47;;
10894;SDS011;5500;49.886;8.074;2022-10-22T01:42:52;4.57;;;2.77;;
10894;SDS011;5500;49.886;8.074;2022-10-22T01:45:23;3.90;;;2.60;;
10894;SDS011;5500;49.886;8.074;2022-10-22T01:47:56;8.40;;;3.23;;
10894;SDS011;5500;49.886;8.074;2022-10-22T01:50:31;4.87;;;2.40;;
10894;SDS011;5500;49.886;8.074;2022-10-22T01:53:10;5.40;;;2.70;;
10894;SDS011;5500;49.886;8.074;2022-10-22T01:55:52;5.60;;;2.30;;
10894;SDS011;5500;49.886;8.074;2022-10-22T01:58:28;3.10;;;2.30;;
10894;SDS011;5500;49.886;8.074;2022-10-22T02:01:06;7.47;;;2.50;;
10894;SDS011;5500;49.886;8.074;2022-10-22T02:03:39;5.30;;;2.00;;
10894;SDS011;5500;49.886;8.074;2022-10-22T02:06:12;5.60;;;2.10;;
10894;SDS011;5500;49.886;8.074;2022-10-22T02:08:42;3.73;;;1.90;;
10894;SDS011;5500;49.886;8.074;2022-10-22T02:11:12;9.70;;;2.30;;
10894;SDS011;5500;49.886;8.074;2022-10-22T02:13:41;5.60;;;2.00;;
10894;SDS011;5500;49.886;8.074;2022-10-22T02:16:12;3.53;;;1.90;;
10894;SDS011;5500;49.886;8.074;2022-10-22T02:18:43;3.97;;;1.77;;
10894;SDS011;5500;49.886;8.074;2022-10-22T02:21:11;4.87;;;1.87;;
10894;SDS011;5500;49.886;8.074;2022-10-22T02:23:39;2.77;;;1.87;;
10894;SDS011;5500;49.886;8.074;2022-10-22T02:26:08;3.87;;;1.93;;
10894;SDS011;5500;49.886;8.074;2022-10-22T02:28:41;2.87;;;1.73;;
10894;SDS011;5500;49.886;8.074;2022-10-22T02:31:14;3.63;;;1.90;;
10894;SDS011;5500;49.886;8.074;2022-10-22T02:33:46;3.70;;;1.50;;
10894;SDS011;5500;49.886;8.074;2022-10-22T02:36:15;1.60;;;1.50;;
10894;SDS011;5500;49.886;8.074;2022-10-22T02:38:43;3.63;;;1.40;;
10894;SDS011;5500;49.886;8.074;2022-10-22T02:41:12;4.57;;;1.67;;
10894;SDS011;5500;49.886;8.074;2022-10-22T02:43:41;5.13;;;2.13;;
10894;SDS011;5500;49.886;8.074;2022-10-22T02:46:10;2.20;;;1.50;;
10894;SDS011;5500;49.886;8.074;2022-10-22T02:48:39;1.70;;;1.60;;
10894;SDS011;5500;49.886;8.074;2022-10-22T02:51:07;3.90;;;1.57;;
10894;SDS011;5500;49.886;8.074;2022-10-22T02:53:34;3.53;;;1.60;;
10894;SDS011;5500;49.886;8.074;2022-10-22T02:56:02;6.20;;;2.27;;
10894;SDS011;5500;49.886;8.074;2022-10-22T02:58:30;2.13;;;1.60;;
10894;SDS011;5500;49.886;8.074;2022-10-22T03:00:57;2.07;;;1.40;;
10894;SDS011;5500;49.886;8.074;2022-10-22T03:03:25;4.27;;;1.80;;
10894;SDS011;5500;49.886;8.074;2022-10-22T03:05:54;4.40;;;1.50;;
10894;SDS011;5500;49.886;8.074;2022-10-22T03:08:22;2.93;;;1.40;;
10894;SDS011;5500;49.886;8.074;2022-10-22T03:10:49;3.93;;;1.60;;
10894;SDS011;5500;49.886;8.074;2022-10-22T03:13:17;2.93;;;1.80;;
10894;SDS011;5500;49.886;8.074;2022-10-22T03:15:46;3.10;;;1.70;;
10894;SDS011;5500;49.886;8.074;2022-10-22T03:18:14;3.30;;;1.43;;
10894;SDS011;5500;49.886;8.074;2022-10-22T03:20:42;3.40;;;1.40;;
10894;SDS011;5500;49.886;8.074;2022-10-22T03:23:11;1.80;;;1.37;;
10894;SDS011;5500;49.886;8.074;2022-10-22T03:25:41;6.73;;;1.83;;
10894;SDS011;5500;49.886;8.074;2022-10-22T03:28:10;3.80;;;1.47;;
10894;SDS011;5500;49.886;8.074;2022-10-22T03:30:40;2.27;;;1.77;;
10894;SDS011;5500;49.886;8.074;2022-10-22T03:33:07;2.77;;;1.37;;
10894;SDS011;5500;49.886;8.074;2022-10-22T03:35:36;3.47;;;1.20;;
10894;SDS011;5500;49.886;8.074;2022-10-22T03:38:08;2.37;;;1.07;;
10894;SDS011;5500;49.886;8.074;2022-10-22T03:40:37;2.97;;;1.37;;
10894;SDS011;5500;49.886;8.074;2022-10-22T03:43:05;2.87;;;1.33;;
10894;SDS011;5500;49.886;8.074;2022-10-22T03:45:32;2.40;;;1.43;;
10894;SDS011;5500;49.886;8.074;2022-10-22T03:48:00;3.10;;;1.40;;
10894;SDS011;5500;49.886;8.074;2022-10-22T03:50:27;3.37;;;1.40;;
10894;SDS011;5500;49.886;8.074;2022-10-22T03:52:55;3.20;;;1.40;;
10894;SDS011;5500;49.886;8.074;2022-10-22T03:55:23;1.93;;;1.33;;
10894;SDS011;5500;49.886;8.074;2022-10-22T03:57:52;3.23;;;1.37;;
10894;SDS011;5500;49.886;8.074;2022-10-22T04:00:20;2.03;;;1.37;;
10894;SDS011;5500;49.886;8.074;2022-10-22T04:02:47;3.83;;;1.20;;
10894;SDS011;5500;49.886;8.074;2022-10-22T04:05:15;3.80;;;1.20;;
10894;SDS011;5500;49.886;8.074;2022-10-22T04:07:43;2.03;;;1.33;;
10894;SDS011;5500;49.886;8.074;2022-10-22T04:10:10;3.43;;;1.47;;
10894;SDS011;5500;49.886;8.074;2022-10-22T04:12:38;1.63;;;1.20;;
10894;SDS011;5500;49.886;8.074;2022-10-22T04:15:08;1.87;;;1.37;;
10894;SDS011;5500;49.886;8.074;2022-10-22T04:17:36;2.00;;;1.30;;
10894;SDS011;5500;49.886;8.074;2022-10-22T04:20:04;4.03;;;1.40;;
10894;SDS011;5500;49.886;8.074;2022-10-22T04:22:32;2.07;;;1.40;;
10894;SDS011;5500;49.886;8.074;2022-10-22T04:25:00;2.93;;;1.30;;
10894;SDS011;5500;49.886;8.074;2022-10-22T04:27:29;1.73;;;1.10;;
10894;SDS011;5500;49.886;8.074;2022-10-22T04:29:57;3.60;;;1.23;;
10894;SDS011;5500;49.886;8.074;2022-10-22T04:32:26;4.03;;;1.30;;
10894;SDS011;5500;49.886;8.074;2022-10-22T04:34:54;2.33;;;1.30;;
10894;SDS011;5500;49.886;8.074;2022-10-22T04:37:22;2.73;;;1.10;;
10894;SDS011;5500;49.886;8.074;2022-10-22T04:39:49;3.93;;;1.40;;
10894;SDS011;5500;49.886;8.074;2022-10-22T04:42:17;6.93;;;1.50;;
10894;SDS011;5500;49.886;8.074;2022-10-22T04:44:45;2.43;;;0.90;;
10894;SDS011;5500;49.886;8.074;2022-10-22T04:47:12;2.17;;;1.13;;
10894;SDS011;5500;49.886;8.074;2022-10-22T04:49:41;1.77;;;1.10;;
10894;SDS011;5500;49.886;8.074;2022-10-22T04:52:09;1.57;;;1.10;;
10894;SDS011;5500;49.886;8.074;2022-10-22T04:54:37;4.40;;;1.30;;
10894;SDS011;5500;49.886;8.074;2022-10-22T04:57:05;2.60;;;1.03;;
10894;SDS011;5500;49.886;8.074;2022-10-22T04:59:32;2.17;;;1.20;;
10894;SDS011;5500;49.886;8.074;2022-10-22T05:02:00;1.17;;;0.90;;
10894;SDS011;5500;49.886;8.074;2022-10-22T05:04:28;2.07;;;0.90;;
10894;SDS011;5500;49.886;8.074;2022-10-22T05:06:56;2.67;;;0.90;;
10894;SDS011;5500;49.886;8.074;2022-10-22T05:09:24;1.20;;;1.10;;
10894;SDS011;5500;49.886;8.074;2022-10-22T05:11:52;2.30;;;1.00;;
10894;SDS011;5500;49.886;8.074;2022-10-22T05:14:21;2.57;;;0.90;;
10894;SDS011;5500;49.886;8.074;2022-10-22T05:16:50;4.93;;;1.27;;
10894;SDS011;5500;49.886;8.074;2022-10-22T05:19:20;3.97;;;0.97;;
10894;SDS011;5500;49.886;8.074;2022-10-22T05:21:49;4.73;;;1.00;;
10894;SDS011;5500;49.886;8.074;2022-10-22T05:24:19;2.33;;;1.10;;
10894;SDS011;5500;49.886;8.074;2022-10-22T05:26:47;3.63;;;1.13;;
10894;SDS011;5500;49.886;8.074;2022-10-22T05:29:15;2.27;;;1.07;;
10894;SDS011;5500;49.886;8.074;2022-10-22T05:31:43;3.37;;;1.10;;
10894;SDS011;5500;49.886;8.074;2022-10-22T05:34:11;2.07;;;1.13;;
10894;SDS011;5500;49.886;8.074;2022-10-22T05:36:39;2.90;;;1.00;;
10894;SDS011;5500;49.886;8.074;2022-10-22T05:39:06;3.33;;;1.83;;
10894;SDS011;5500;49.886;8.074;2022-10-22T05:41:35;2.13;;;0.97;;
10894;SDS011;5500;49.886;8.074;2022-10-22T05:44:03;2.90;;;1.20;;
10894;SDS011;5500;49.886;8.074;2022-10-22T05:46:33;1.87;;;1.30;;
10894;SDS011;5500;49.886;8.074;2022-10-22T05:49:02;3.70;;;1.33;;
10894;SDS011;5500;49.886;8.074;2022-10-22T05:51:31;1.83;;;1.20;;
10894;SDS011;5500;49.886;8.074;2022-10-22T05:54:01;2.30;;;1.00;;
10894;SDS011;5500;49.886;8.074;2022-10-22T05:56:30;1.20;;;1.10;;
10894;SDS011;5500;49.886;8.074;2022-10-22T05:58:59;4.43;;;0.90;;
10894;SDS011;5500;49.886;8.074;2022-10-22T06:01:29;2.13;;;1.17;;
10894;SDS011;5500;49.886;8.074;2022-10-22T06:03:58;3.20;;;1.13;;
10894;SDS011;5500;49.886;8.074;2022-10-22T06:06:28;2.13;;;1.27;;
10894;SDS011;5500;49.886;8.074;2022-10-22T06:08:59;3.23;;;1.10;;
10894;SDS011;5500;49.886;8.074;2022-10-22T06:11:27;4.37;;;1.20;;
10894;SDS011;5500;49.886;8.074;2022-10-22T06:14:02;2.40;;;1.20;;
10894;SDS011;5500;49.886;8.074;2022-10-22T06:16:30;2.97;;;1.03;;
10894;SDS011;5500;49.886;8.074;2022-10-22T06:18:58;1.20;;;1.03;;
10894;SDS011;5500;49.886;8.074;2022-10-22T06:21:27;2.37;;;0.90;;
10894;SDS011;5500;49.886;8.074;2022-10-22T06:23:55;1.30;;;1.20;;
10894;SDS011;5500;49.886;8.074;2022-10-22T06:26:23;4.63;;;1.20;;
10894;SDS011;5500;49.886;8.074;2022-10-22T06:28:51;2.20;;;1.10;;
10894;SDS011;5500;49.886;8.074;2022-10-22T06:31:20;2.73;;;1.00;;
10894;SDS011;5500;49.886;8.074;2022-10-22T06:33:48;4.73;;;1.47;;
10894;SDS011;5500;49.886;8.074;2022-10-22T06:36:16;5.20;;;1.00;;
10894;SDS011;5500;49.886;8.074;2022-10-22T06:38:45;2.93;;;1.27;;
10894;SDS011;5500;49.886;8.074;2022-10-22T06:41:13;2.23;;;1.27;;
10894;SDS011;5500;49.886;8.074;2022-10-22T06:43:43;3.03;;;1.17;;
10894;SDS011;5500;49.886;8.074;2022-10-22T06:46:12;2.50;;;1.30;;
10894;SDS011;5500;49.886;8.074;2022-10-22T06:48:48;1.37;;;1.20;;
10894;SDS011;5500;49.886;8.074;2022-10-22T06:51:17;2.50;;;1.13;;
10894;SDS011;5500;49.886;8.074;2022-10-22T06:53:46;5.13;;;1.50;;
10894;SDS011;5500;49.886;8.074;2022-10-22T06:56:16;4.10;;;1.27;;
10894;SDS011;5500;49.886;8.074;2022-10-22T06:58:45;4.93;;;1.47;;
10894;SDS011;5500;49.886;8.074;2022-10-22T07:01:14;3.77;;;1.30;;
10894;SDS011;5500;49.886;8.074;2022-10-22T07:03:43;2.53;;;1.13;;
10894;SDS011;5500;49.886;8.074;2022-10-22T07:06:12;5.83;;;1.17;;
10894;SDS011;5500;49.886;8.074;2022-10-22T07:08:41;4.37;;;1.00;;
10894;SDS011;5500;49.886;8.074;2022-10-22T07:11:10;1.17;;;0.80;;
10894;SDS011;5500;49.886;8.074;2022-10-22T07:13:38;2.27;;;0.97;;
10894;SDS011;5500;49.886;8.074;2022-10-22T07:16:06;4.83;;;1.57;;
10894;SDS011;5500;49.886;8.074;2022-10-22T07:18:35;7.40;;;1.23;;
10894;SDS011;5500;49.886;8.074;2022-10-22T07:21:04;2.77;;;0.90;;
10894;SDS011;5500;49.886;8.074;2022-10-22T07:23:33;1.50;;;0.83;;
10894;SDS011;5500;49.886;8.074;2022-10-22T07:26:01;2.97;;;1.30;;
10894;SDS011;5500;49.886;8.074;2022-10-22T07:28:29;3.27;;;1.07;;
10894;SDS011;5500;49.886;8.074;2022-10-22T07:30:57;1.93;;;0.93;;
10894;SDS011;5500;49.886;8.074;2022-10-22T07:33:25;0.83;;;0.80;;
10894;SDS011;5500;49.886;8.074;2022-10-22T07:35:56;2.47;;;0.90;;
10894;SDS011;5500;49.886;8.074;2022-10-22T07:38:24;1.83;;;0.93;;
10894;SDS011;5500;49.886;8.074;2022-10-22T07:40:53;1.57;;;1.07;;
10894;SDS011;5500;49.886;8.074;2022-10-22T07:43:21;4.37;;;1.40;;
10894;SDS011;5500;49.886;8.074;2022-10-22T07:45:49;1.57;;;0.70;;
10894;SDS011;5500;49.886;8.074;2022-10-22T07:48:16;0.63;;;0.60;;
10894;SDS011;5500;49.886;8.074;2022-10-22T07:50:44;2.30;;;0.70;;
10894;SDS011;5500;49.886;8.074;2022-10-22T07:53:11;2.93;;;0.83;;
10894;SDS011;5500;49.886;8.074;2022-10-22T07:55:39;3.73;;;1.00;;
10894;SDS011;5500;49.886;8.074;2022-10-22T07:58:08;2.60;;;0.80;;
10894;SDS011;5500;49.886;8.074;2022-10-22T08:00:36;2.83;;;0.83;;
10894;SDS011;5500;49.886;8.074;2022-10-22T08:03:03;3.50;;;1.00;;
10894;SDS011;5500;49.886;8.074;2022-10-22T08:05:31;0.70;;;0.70;;
10894;SDS011;5500;49.886;8.074;2022-10-22T08:07:59;3.43;;;0.80;;
10894;SDS011;5500;49.886;8.074;2022-10-22T08:10:26;3.07;;;0.80;;
10894;SDS011;5500;49.886;8.074;2022-10-22T08:12:54;1.00;;;0.80;;
10894;SDS011;5500;49.886;8.074;2022-10-22T08:15:23;2.63;;;0.93;;
10894;SDS011;5500;49.886;8.074;2022-10-22T08:17:52;0.87;;;0.70;;
10894;SDS011;5500;49.886;8.074;2022-10-22T08:20:20;1.60;;;0.80;;
10894;SDS011;5500;49.886;8.074;2022-10-22T08:22:47;2.97;;;1.20;;
10894;SDS011;5500;49.886;8.074;2022-10-22T08:25:15;1.80;;;0.93;;
10894;SDS011;5500;49.886;8.074;2022-10-22T08:27:44;2.53;;;0.97;;
10894;SDS011;5500;49.886;8.074;2022-10-22T08:30:12;2.67;;;1.00;;
10894;SDS011;5500;49.886;8.074;2022-10-22T08:32:41;1.80;;;0.90;;
10894;SDS011;5500;49.886;8.074;2022-10-22T08:35:09;0.67;;;0.60;;
10894;SDS011;5500;49.886;8.074;2022-10-22T08:37:42;1.27;;;0.70;;
10894;SDS011;5500;49.886;8.074;2022-10-22T08:40:10;1.63;;;0.70;;
10894;SDS011;5500;49.886;8.074;2022-10-22T08:42:47;4.30;;;0.73;;
10894;SDS011;5500;49.886;8.074;2022-10-22T08:45:23;2.43;;;0.67;;
10894;SDS011;5500;49.886;8.074;2022-10-22T08:47:59;1.53;;;0.70;;
10894;SDS011;5500;49.886;8.074;2022-10-22T08:50:35;2.00;;;0.70;;
10894;SDS011;5500;49.886;8.074;2022-10-22T08:53:06;3.50;;;0.80;;
10894;SDS011;5500;49.886;8.074;2022-10-22T08:55:38;3.20;;;0.80;;
10894;SDS011;5500;49.886;8.074;2022-10-22T08:58:08;1.97;;;0.70;;
10894;SDS011;5500;49.886;8.074;2022-10-22T09:00:44;3.43;;;1.10;;
10894;SDS011;5500;49.886;8.074;2022-10-22T09:03:29;1.57;;;0.77;;
10894;SDS011;5500;49.886;8.074;2022-10-22T09:06:04;3.23;;;0.80;;
10894;SDS011;5500;49.886;8.074;2022-10-22T09:08:36;1.37;;;0.80;;
10894;SDS011;5500;49.886;8.074;2022-10-22T09:11:06;1.10;;;0.63;;
10894;SDS011;5500;49.886;8.074;2022-10-22T09:13:41;1.43;;;0.73;;
10894;SDS011;5500;49.886;8.074;2022-10-22T09:16:13;2.17;;;0.53;;
10894;SDS011;5500;49.886;8.074;2022-10-22T09:18:45;1.40;;;0.77;;
10894;SDS011;5500;49.886;8.074;2022-10-22T09:21:24;1.37;;;0.50;;
10894;SDS011;5500;49.886;8.074;2022-10-22T09:23:58;7.13;;;1.20;;
10894;SDS011;5500;49.886;8.074;2022-10-22T09:26:31;2.37;;;0.87;;
10894;SDS011;5500;49.886;8.074;2022-10-22T09:29:02;0.90;;;0.80;;
10894;SDS011;5500;49.886;8.074;2022-10-22T09:31:31;4.23;;;0.97;;
10894;SDS011;5500;49.886;8.074;2022-10-22T09:34:01;1.43;;;0.87;;
10894;SDS011;5500;49.886;8.074;2022-10-22T09:36:33;0.50;;;0.50;;
10894;SDS011;5500;49.886;8.074;2022-10-22T09:39:01;2.30;;;0.80;;
10894;SDS011;5500;49.886;8.074;2022-10-22T09:41:29;1.80;;;0.63;;
10894;SDS011;5500;49.886;8.074;2022-10-22T09:43:57;8.53;;;1.10;;
10894;SDS011;5500;49.886;8.074;2022-10-22T09:46:26;1.37;;;0.87;;
10894;SDS011;5500;49.886;8.074;2022-10-22T09:48:59;2.53;;;0.77;;
10894;SDS011;5500;49.886;8.074;2022-10-22T09:51:40;3.83;;;0.90;;
10894;SDS011;5500;49.886;8.074;2022-10-22T09:54:14;2.83;;;1.00;;
10894;SDS011;5500;49.886;8.074;2022-10-22T09:56:46;2.53;;;0.87;;
10894;SDS011;5500;49.886;8.074;2022-10-22T09:59:23;2.70;;;1.00;;
10894;SDS011;5500;49.886;8.074;2022-10-22T10:01:57;1.10;;;1.00;;
10894;SDS011;5500;49.886;8.074;2022-10-22T10:04:47;2.73;;;0.70;;
10894;SDS011;5500;49.886;8.074;2022-10-22T10:07:16;1.57;;;0.93;;
10894;SDS011;5500;49.886;8.074;2022-10-22T10:09:45;2.63;;;0.90;;
10894;SDS011;5500;49.886;8.074;2022-10-22T10:12:18;0.77;;;0.73;;
10894;SDS011;5500;49.886;8.074;2022-10-22T10:14:53;1.57;;;0.90;;
10894;SDS011;5500;49.886;8.074;2022-10-22T10:17:25;2.90;;;1.00;;
10894;SDS011;5500;49.886;8.074;2022-10-22T10:20:12;3.60;;;1.27;;
10894;SDS011;5500;49.886;8.074;2022-10-22T10:22:53;1.53;;;1.00;;
10894;SDS011;5500;49.886;8.074;2022-10-22T10:25:27;4.23;;;0.90;;
10894;SDS011;5500;49.886;8.074;2022-10-22T10:28:00;2.30;;;1.00;;
10894;SDS011;5500;49.886;8.074;2022-10-22T10:30:37;4.03;;;1.03;;
10894;SDS011;5500;49.886;8.074;2022-10-22T10:33:10;1.60;;;0.70;;
10894;SDS011;5500;49.886;8.074;2022-10-22T10:35:48;3.97;;;0.93;;
10894;SDS011;5500;49.886;8.074;2022-10-22T10:38:24;2.80;;;1.13;;
10894;SDS011;5500;49.886;8.074;2022-10-22T10:41:02;3.70;;;1.30;;
10894;SDS011;5500;49.886;8.074;2022-10-22T10:43:36;4.60;;;1.10;;
10894;SDS011;5500;49.886;8.074;2022-10-22T10:46:11;2.60;;;0.80;;
10894;SDS011;5500;49.886;8.074;2022-10-22T10:48:48;4.07;;;1.20;;
10894;SDS011;5500;49.886;8.074;2022-10-22T10:51:24;2.27;;;0.93;;
10894;SDS011;5500;49.886;8.074;2022-10-22T10:54:01;3.87;;;1.07;;
10894;SDS011;5500;49.886;8.074;2022-10-22T10:56:35;2.90;;;0.77;;
10894;SDS011;5500;49.886;8.074;2022-10-22T10:59:09;4.87;;;0.90;;
10894;SDS011;5500;49.886;8.074;2022-10-22T11:01:41;3.83;;;1.20;;
10894;SDS011;5500;49.886;8.074;2022-10-22T11:04:22;3.17;;;1.40;;
10894;SDS011;5500;49.886;8.074;2022-10-22T11:06:57;4.47;;;1.40;;
10894;SDS011;5500;49.886;8.074;2022-10-22T11:09:42;2.33;;;1.10;;
10894;SDS011;5500;49.886;8.074;2022-10-22T11:12:12;4.80;;;1.43;;
10894;SDS011;5500;49.886;8.074;2022-10-22T11:14:45;6.20;;;1.40;;
10894;SDS011;5500;49.886;8.074;2022-10-22T11:17:18;3.40;;;1.30;;
10894;SDS011;5500;49.886;8.074;2022-10-22T11:19:47;3.37;;;1.10;;
10894;SDS011;5500;49.886;8.074;2022-10-22T11:22:27;4.07;;;1.57;;
10894;SDS011;5500;49.886;8.074;2022-10-22T11:24:58;2.70;;;1.17;;
10894;SDS011;5500;49.886;8.074;2022-10-22T11:27:29;4.83;;;1.03;;
10894;SDS011;5500;49.886;8.074;2022-10-22T11:29:59;8.10;;;1.90;;
10894;SDS011;5500;49.886;8.074;2022-10-22T11:32:28;3.63;;;1.20;;
10894;SDS011;5500;49.886;8.074;2022-10-22T11:34:57;6.53;;;1.30;;
10894;SDS011;5500;49.886;8.074;2022-10-22T11:37:27;5.40;;;1.20;;
10894;SDS011;5500;49.886;8.074;2022-10-22T11:40:04;2.43;;;1.00;;
10894;SDS011;5500;49.886;8.074;2022-10-22T11:42:34;6.20;;;1.33;;
10894;SDS011;5500;49.886;8.074;2022-10-22T11:45:03;3.70;;;1.17;;
10894;SDS011;5500;49.886;8.074;2022-10-22T11:47:33;3.00;;;1.23;;
10894;SDS011;5500;49.886;8.074;2022-10-22T11:50:17;2.80;;;1.47;;
10894;SDS011;5500;49.886;8.074;2022-10-22T11:52:53;5.40;;;1.80;;
10894;SDS011;5500;49.886;8.074;2022-10-22T11:55:33;4.33;;;1.30;;
10894;SDS011;5500;49.886;8.074;2022-10-22T11:58:28;5.30;;;1.87;;
10894;SDS011;5500;49.886;8.074;2022-10-22T12:01:16;3.77;;;1.30;;
10894;SDS011;5500;49.886;8.074;2022-10-22T12:03:48;7.37;;;1.63;;
10894;SDS011;5500;49.886;8.074;2022-10-22T12:06:18;3.40;;;1.20;;
10894;SDS011;5500;49.886;8.074;2022-10-22T12:08:55;4.90;;;1.47;;
10894;SDS011;5500;49.886;8.074;2022-10-22T12:11:26;9.20;;;1.37;;
10894;SDS011;5500;49.886;8.074;2022-10-22T12:13:56;4.27;;;1.20;;
10894;SDS011;5500;49.886;8.074;2022-10-22T12:16:28;3.43;;;1.30;;
10894;SDS011;5500;49.886;8.074;2022-10-22T12:19:28;4.27;;;1.30;;
10894;SDS011;5500;49.886;8.074;2022-10-22T12:22:09;3.10;;;1.07;;
10894;SDS011;5500;49.886;8.074;2022-10-22T12:24:42;2.73;;;1.23;;
10894;SDS011;5500;49.886;8.074;2022-10-22T12:27:15;7.00;;;1.50;;
10894;SDS011;5500;49.886;8.074;2022-10-22T12:29:47;5.23;;;1.30;;
10894;SDS011;5500;49.886;8.074;2022-10-22T12:32:15;4.20;;;1.27;;
10894;SDS011;5500;49.886;8.074;2022-10-22T12:34:44;7.30;;;1.53;;
10894;SDS011;5500;49.886;8.074;2022-10-22T12:37:13;5.70;;;1.77;;
10894;SDS011;5500;49.886;8.074;2022-10-22T12:39:43;3.30;;;1.30;;
10894;SDS011;5500;49.886;8.074;2022-10-22T12:42:11;4.13;;;1.30;;
10894;SDS011;5500;49.886;8.074;2022-10-22T12:44:41;4.13;;;1.30;;
10894;SDS011;5500;49.886;8.074;2022-10-22T12:47:10;2.07;;;1.07;;
10894;SDS011;5500;49.886;8.074;2022-10-22T12:49:42;5.03;;;1.57;;
10894;SDS011;5500;49.886;8.074;2022-10-22T12:52:13;3.03;;;1.30;;
10894;SDS011;5500;49.886;8.074;2022-10-22T12:54:45;3.37;;;1.30;;
10894;SDS011;5500;49.886;8.074;2022-10-22T12:57:14;3.20;;;1.20;;
10894;SDS011;5500;49.886;8.074;2022-10-22T12:59:45;5.80;;;1.60;;
10894;SDS011;5500;49.886;8.074;2022-10-22T13:02:16;4.10;;;1.70;;
10894;SDS011;5500;49.886;8.074;2022-10-22T13:05:11;5.37;;;1.50;;
10894;SDS011;5500;49.886;8.074;2022-10-22T13:07:42;5.67;;;1.40;;
10894;SDS011;5500;49.886;8.074;2022-10-22T13:10:16;3.97;;;1.67;;
10894;SDS011;5500;49.886;8.074;2022-10-22T13:12:50;4.13;;;1.50;;
10894;SDS011;5500;49.886;8.074;2022-10-22T13:15:22;6.23;;;1.70;;
10894;SDS011;5500;49.886;8.074;2022-10-22T13:18:03;5.33;;;1.40;;
10894;SDS011;5500;49.886;8.074;2022-10-22T13:20:33;5.93;;;1.50;;
10894;SDS011;5500;49.886;8.074;2022-10-22T13:23:02;7.30;;;1.60;;
10894;SDS011;5500;49.886;8.074;2022-10-22T13:25:32;3.13;;;1.20;;
10894;SDS011;5500;49.886;8.074;2022-10-22T13:28:01;6.57;;;1.40;;
10894;SDS011;5500;49.886;8.074;2022-10-22T13:30:50;4.10;;;1.40;;
10894;SDS011;5500;49.886;8.074;2022-10-22T13:33:20;3.77;;;1.63;;
10894;SDS011;5500;49.886;8.074;2022-10-22T13:35:49;3.93;;;1.37;;
10894;SDS011;5500;49.886;8.074;2022-10-22T13:38:17;4.27;;;1.60;;
10894;SDS011;5500;49.886;8.074;2022-10-22T13:40:47;4.23;;;1.43;;
10894;SDS011;5500;49.886;8.074;2022-10-22T13:43:16;4.50;;;1.70;;
10894;SDS011;5500;49.886;8.074;2022-10-22T13:45:44;4.37;;;1.23;;
10894;SDS011;5500;49.886;8.074;2022-10-22T13:48:13;5.67;;;1.60;;
10894;SDS011;5500;49.886;8.074;2022-10-22T13:50:41;4.30;;;1.60;;
10894;SDS011;5500;49.886;8.074;2022-10-22T13:53:09;6.00;;;1.50;;
10894;SDS011;5500;49.886;8.074;2022-10-22T13:55:44;5.80;;;1.63;;
10894;SDS011;5500;49.886;8.074;2022-10-22T13:58:14;4.87;;;1.70;;
10894;SDS011;5500;49.886;8.074;2022-10-22T14:00:48;4.80;;;1.60;;
10894;SDS011;5500;49.886;8.074;2022-10-22T14:03:17;7.53;;;1.70;;
10894;SDS011;5500;49.886;8.074;2022-10-22T14:05:46;5.30;;;1.80;;
10894;SDS011;5500;49.886;8.074;2022-10-22T14:08:15;4.07;;;1.63;;
10894;SDS011;5500;49.886;8.074;2022-10-22T14:10:44;7.20;;;2.00;;
10894;SDS011;5500;49.886;8.074;2022-10-22T14:13:15;3.87;;;1.70;;
10894;SDS011;5500;49.886;8.074;2022-10-22T14:15:44;2.90;;;1.43;;
10894;SDS011;5500;49.886;8.074;2022-10-22T14:18:17;6.07;;;1.77;;
10894;SDS011;5500;49.886;8.074;2022-10-22T14:20:51;6.07;;;1.70;;
10894;SDS011;5500;49.886;8.074;2022-10-22T14:23:20;3.27;;;1.53;;
10894;SDS011;5500;49.886;8.074;2022-10-22T14:25:51;5.13;;;1.57;;
10894;SDS011;5500;49.886;8.074;2022-10-22T14:28:21;2.77;;;1.30;;
10894;SDS011;5500;49.886;8.074;2022-10-22T14:30:49;3.20;;;1.47;;
10894;SDS011;5500;49.886;8.074;2022-10-22T14:33:19;7.17;;;1.63;;
10894;SDS011;5500;49.886;8.074;2022-10-22T14:35:55;4.63;;;1.97;;
10894;SDS011;5500;49.886;8.074;2022-10-22T14:38:24;4.47;;;1.60;;
10894;SDS011;5500;49.886;8.074;2022-10-22T14:40:52;7.37;;;1.40;;
10894;SDS011;5500;49.886;8.074;2022-10-22T14:43:22;4.67;;;1.30;;
10894;SDS011;5500;49.886;8.074;2022-10-22T14:45:50;4.37;;;1.37;;
10894;SDS011;5500;49.886;8.074;2022-10-22T14:48:20;6.50;;;1.70;;
10894;SDS011;5500;49.886;8.074;2022-10-22T14:50:48;3.97;;;1.40;;
10894;SDS011;5500;49.886;8.074;2022-10-22T14:53:16;4.70;;;1.47;;
10894;SDS011;5500;49.886;8.074;2022-10-22T14:55:45;5.13;;;1.50;;
10894;SDS011;5500;49.886;8.074;2022-10-22T14:58:16;5.50;;;1.60;;
10894;SDS011;5500;49.886;8.074;2022-10-22T15:00:46;8.17;;;1.80;;
10894;SDS011;5500;49.886;8.074;2022-10-22T15:03:14;5.73;;;1.47;;
10894;SDS011;5500;49.886;8.074;2022-10-22T15:05:42;4.53;;;1.60;;
10894;SDS011;5500;49.886;8.074;2022-10-22T15:08:13;2.63;;;1.13;;
10894;SDS011;5500;49.886;8.074;2022-10-22T15:10:41;5.90;;;1.40;;
10894;SDS011;5500;49.886;8.074;2022-10-22T15:13:09;6.20;;;1.93;;
10894;SDS011;5500;49.886;8.074;2022-10-22T15:15:38;6.50;;;1.60;;
10894;SDS011;5500;49.886;8.074;2022-10-22T15:18:08;5.17;;;1.63;;
10894;SDS011;5500;49.886;8.074;2022-10-22T15:20:36;4.40;;;1.50;;
10894;SDS011;5500;49.886;8.074;2022-10-22T15:23:03;5.43;;;1.50;;